Stony Ridge, Ohio
Current Conditions -  °F | °C
As of 10:53 PM on Saturday 25 Oct 2014 (Local Time) from KTDZ Reporting Station
Clear Clear  
Wind Chill: 53°   Ceiling: Unl
Heat Index: 53°   Visibility: 10mi
Dew Point: 32°   Wind: 7mph
Humidity: 45%   Direction: 260°W
Pressure: 29.86"   Gusts: NA
Location:  41.51°N, 83.51°W
Report Text: KTDZ 260253Z AUTO 26006KT 10SM CLR 12/00 A2986 RMK AO2 SLP111 T01170000 53011 TSNO
Loading
Personal Weather Stations






























Interactive Weather Map
Tropical Storm Tracking
New forecast layout! Learn more

10-Day Weather Forecast

Advertisements
Track Severe Weather on mobile